Tiempo atmosférico en la estación meteorológica de Coria, Cáceres (313 m.)



Fecha
DESCASC
Temp. máxima en grados centígrados (hora)
DESCASC
Temp. mínima en grados centígrados (hora)
DESCASC
Temp. media en grados centígrados
DESCASC
Racha de viento máxima en m/sg (hora)
DESCASC
Velocidad máxima media en intervalos de 10 minutos(hora)
DESCASC
Precipitaciones diarias en mm
DESCASC
Precipitaciones de 00:00 a 06:00 en mm
DESCASC
Precipitaciones de 06:00 a 12:00 en mm
DESCASC
Precipitaciones de 12:00 a 18:00 en mm
DESCASC
Precipitaciones de 18:00 a 24:00 en mm
DESCASC
10-11-2019 12.7 (12:20) 8.6 (00:00) 10.7 15 (03:10) 8.89 (02:50) 0 0 0 0 0
09-11-2019 13.9 (13:00) 4.6 (00:00) 9.2 7.22 (13:20) 4.17 (14:10) 2.8 0 0 2.6 0.2
08-11-2019 15.1 (14:40) 5.3 (00:00) 10.2 -- (--) -- (--) 0 0 0 0 0
07-11-2019 16.3 (14:40) 6.9 (00:00) 11.6 13.61 (17:20) 6.39 (11:20) 1.6 1.6 0 0 0
06-11-2019 17.6 (16:00) 8.5 (00:00) 13.1 8.33 (02:20) 5.28 (16:50) 0 0 0 0 0
05-11-2019 18.3 (13:40) 7.5 (00:00) 12.9 13.61 (16:40) 6.11 (11:30) 0 0 0 0 0
04-11-2019 19.5 (14:00) 11 (00:00) 15.3 16.67 (14:40) 11.11 (14:40) 0.2 0 0 0.2 0
03-11-2019 20.2 (16:30) 14.4 (00:00) 17.3 16.11 (12:10) 9.17 (12:10) 0 0 0 0 0
02-11-2019 20 (13:20) 14.8 (00:00) 17.4 13.33 (22:30) 8.89 (17:50) 0 0 0 0 0
01-11-2019 23 (15:00) 15.8 (00:00) 19.4 14.44 (17:30) 9.17 (14:40) 0 0 0 0 0
31-10-2019 21.9 (16:10) 15.9 (03:10) 18.9 7.22 (17:30) 4.17 (17:10) 0 0 0 0 0
30-10-2019 19.3 (14:40) 14 (00:00) 16.6 4.17 (14:30) 2.78 (14:30) 1.6 0 0 0.4 1.2
29-10-2019 22.1 (14:30) 14.2 (00:00) 18.2 7.22 (16:00) 3.89 (15:50) 0.2 0.2 0 0 0
28-10-2019 20.2 (15:50) 12.4 (00:00) 16.3 3.89 (15:50) 1.94 (11:50) 0 0 0 0 0
27-10-2019 25.1 (14:50) 10.8 (00:00) 18 11.11 (11:30) 5.83 (11:30) 0 0 0 0 0
26-10-2019 26 (17:10) 12.6 (00:00) 19.3 9.17 (12:10) 5.56 (12:40) 0 0 0 0 0
25-10-2019 23.6 (17:40) 8.6 (00:00) 16.1 7.78 (14:40) 3.89 (12:20) 0 0 0 0 0
24-10-2019 20.4 (17:30) 8.1 (00:00) 14.3 5.56 (15:50) 2.78 (04:20) 0 0 0 0 0
23-10-2019 -- (--) -- (--) -- -- (--) -- (--) -- -- -- 1.2 1.8
22-10-2019 -- (--) -- (--) -- -- (--) -- (--) -- -- -- -- --
21-10-2019 -- (--) -- (--) -- -- (--) -- (--) -- -- -- 0 --
20-10-2019 -- (--) -- (--) -- -- (--) -- (--) -- -- -- -- --
19-10-2019 -- (--) -- (--) -- -- (--) -- (--) -- 0 -- -- --
18-10-2019 21.9 (17:10) 13.9 (00:00) 17.9 8.33 (19:20) 4.72 (19:10) 0.8 0.8 0 0 0
17-10-2019 17.9 (23:50) 13.4 (00:00) 15.6 4.72 (23:59) 3.33 (07:30) 10.6 0.8 6.4 2.2 1.2
16-10-2019 21.4 (16:50) 8.3 (00:00) 14.8 6.67 (13:20) 3.33 (17:10) 0 0 0 0 0
15-10-2019 18.6 (17:20) 6.9 (00:00) 12.8 6.67 (15:40) 2.78 (14:50) 0 0 0 0 0
14-10-2019 19.9 (00:30) 11 (00:00) 15.4 12.78 (18:10) 6.11 (07:00) 8.8 0 2.8 6 0

Gráficas

Temp. máximas Temp. mínimas Temp. medias Precipitaciones Rachas de viento máximas Velocidades máximas media en intervalos de 10 minutos

Datos horarios

Fecha y hora oficial Temperatura (ºC) Velocidad del viento (km/h) Dirección del viento Racha (km/h) Dirección de racha Precipitación (mm) Presión (hPa) Tendencia (hPa) Humedad (%)
2019-11-12 23:00:00 12.3 13 Oeste 23 Sudoeste 0 976.5 -0.6 84
2019-11-12 22:00:00 12.9 16 Oeste 28 Oeste 0 976.9 -0.6 80
2019-11-12 21:00:00 13.1 19 Oeste 32 Sudoeste 0 976.9 -1 77
2019-11-12 20:00:00 13.6 18 Sudoeste 32 Oeste 0 977.1 -1.1 72
2019-11-12 19:00:00 14.3 24 Oeste 35 Oeste 0 977.5 -1 67
2019-11-12 18:00:00 15.3 9 Sudoeste 30 Oeste 0 977.9 -1.5 57
2019-11-12 17:00:00 16.1 14 Oeste 30 Oeste 0 978.2 -1.7 55
2019-11-12 16:00:00 17.2 8 Noroeste 24 Noroeste 0 978.5 -2.2 46
2019-11-12 15:00:00 15.7 12 Noroeste 30 Noroeste 0 979.4 -2.4 49
2019-11-12 14:00:00 16.3 12 Noroeste 35 Noroeste 0 979.9 -1.7 45
2019-11-12 13:00:00 14.9 17 Noroeste 36 Noroeste 0 980.7 -1.3 49
2019-11-12 12:00:00 14.5 9 Norte 20 Norte 0 981.8 0.4 49
2019-11-12 11:00:00 13.5 6 Este 14 Oeste 0 981.6 0.7 51
2019-11-12 10:00:00 11 4 Norte 18 Norte 0 982 1.3 57
2019-11-12 09:00:00 9.1 9 Norte 18 Norte 0 981.4 0.8 62
2019-11-12 08:00:00 8.7 10 Norte 19 Noroeste 0 980.9 0.5 65
2019-11-12 07:00:00 8.3 5 Norte 20 Noroeste 0 980.7 -0.3 68
2019-11-12 06:00:00 7.8 9 Noroeste 18 Noroeste 0 980.6 -0.6 72
2019-11-12 05:00:00 7.5 4 Noroeste 12 Norte 0 980.4 -1.4 74
2019-11-12 04:00:00 9.6 10 Norte 26 Noroeste 0 981 -1.2 66
2019-11-12 03:00:00 10.6 12 Noroeste 28 Norte 0 981.2 -0.8 62
2019-11-12 02:00:00 10.1 12 Norte 24 Norte 0 981.8 -0.1 66
2019-11-12 01:00:00 10 13 Noroeste 23 Norte 0 982.2 0.9 69
2019-11-12 00:00:00 11.1 14 Norte 26 Norte 0 982 1.1 65
2019-11-11 23:00:00 11 5 Norte 32 Norte 0 981.9 1.1 67
2019-11-11 22:00:00 12.7 16 Norte 36 Noroeste 0 981.3 0.8 62
2019-11-11 21:00:00 13.5 14 Norte 35 Noroeste 0 980.9 1 62
2019-11-11 20:00:00 14.1 15 Noroeste 28 Noroeste 0 980.8 1.2 61
2019-11-11 19:00:00 14.4 7 Nordeste 24 Norte 0 980.5 1.1 63
2019-11-11 18:00:00 16.5 13 Norte 26 Norte 0 979.9 0.4 60
2019-11-11 17:00:00 17.8 9 Norte 26 Oeste 0 979.6 0 59
2019-11-11 16:00:00 17.4 9 Oeste 18 Oeste 0 979.4 -1.3 68
2019-11-11 15:00:00 15.8 6 Noroeste 15 Oeste 0 979.5 -2.3 75
2019-11-11 14:00:00 14.1 9 Oeste 17 Oeste 0 979.6 -2.4 80
2019-11-11 13:00:00 13.2 6 Oeste 18 Oeste 0 980.7 -1.3 85
2019-11-11 12:00:00 12.2 4 Oeste 14 Oeste 0 981.8 0.3 87
2019-11-11 11:00:00 11.4 3 Sudoeste 10 Oeste 0 982 0.1 89
2019-11-11 10:00:00 10.7 6 Oeste 10 Oeste 0 982 0.2 92
2019-11-11 09:00:00 10.2 3 Sudoeste 9 Sudoeste 0 981.5 -0.6 90
2019-11-11 08:00:00 10.2 2 Oeste 5 Oeste 0 981.9 -0.4 88
2019-11-11 07:00:00 10.3 3 Oeste 5 Oeste 0 981.8 -0.7 85
2019-11-11 06:00:00 10.3 4 Oeste 9 Oeste 0 982.1 0 83
2019-11-11 05:00:00 10.3 5 Noroeste 10 Noroeste 0 982.3 -0.1 82
2019-11-11 04:00:00 10.3 4 Noroeste 12 Noroeste 0 982.5 -1 82
2019-11-11 03:00:00 9.9 4 Noroeste 9 Noroeste 0 982.1 -1.9 82
2019-11-11 02:00:00 10.1 6 Noroeste 12 Noroeste 0 982.4 -1.5 79
2019-11-11 01:00:00 10.6 9 Noroeste 19 Noroeste 0 983.5 -0.2 76
2019-11-11 00:00:00 10.4 7 Noroeste 16 Noroeste 0 984 0.1 77
2019-11-10 23:00:00 10.5 7 Noroeste 25 Noroeste 0 983.9 0.1 75
2019-11-10 22:00:00 10 6 Oeste 17 Sudoeste 0 983.7 0.2 79
2019-11-10 21:00:00 9.9 12 Sudoeste 35 Noroeste 0 983.9 0.5 78
2019-11-10 20:00:00 10.8 18 Noroeste 37 Noroeste 0 983.8 -0.1 70
2019-11-10 19:00:00 11.4 23 Noroeste 38 Noroeste 0 983.5 -0.4 63
2019-11-10 18:00:00 11.4 19 Noroeste 33 Noroeste 0 983.4 -0.5 64
2019-11-10 17:00:00 11.4 9 Oeste 23 Noroeste 0 983.9 -0.3 66
2019-11-10 16:00:00 11.5 8 Oeste 22 Noroeste 0 983.9 -0.6 64
2019-11-10 15:00:00 11.8 12 Noroeste 31 Noroeste 0 983.9 -0.9 60
2019-11-10 14:00:00 11.8 5 Norte 26 Noroeste 0 984.2 -0.6 60
2019-11-10 13:00:00 12.3 15 Noroeste 39 Noroeste 0 984.5 -0.8 56
2019-11-10 12:00:00 12.4 18 Noroeste 39 Noroeste 0 984.8 -0.1 52
2019-11-10 11:00:00 12.2 11 Noroeste 31 Noroeste 0 984.8 0.6 52
2019-11-10 10:00:00 11.2 12 Noroeste 27 Oeste 0 985.3 1.4 57
2019-11-10 09:00:00 9.7 8 Noroeste 31 Noroeste 0 984.9 1.3 62
2019-11-10 08:00:00 9.5 15 Noroeste 37 Noroeste 0 984.2 0.8 67
2019-11-10 07:00:00 9.7 18 Noroeste 35 Noroeste 0 983.9 0.6 66
2019-11-10 06:00:00 9.9 15 Noroeste 32 Noroeste 0 983.6 0.7 69
2019-11-10 05:00:00 10.1 17 Noroeste 36 Noroeste 0 983.4 0.2 68
2019-11-10 04:00:00 10.7 21 Noroeste 54 Noroeste 0 983.3 -0.5 68
2019-11-10 03:00:00 11.1 31 Noroeste 52 Noroeste 0 982.9 -0.8 64
2019-11-10 02:00:00 10.7 21 Noroeste 39 Noroeste 0 983.2 -0.4 71
2019-11-10 01:00:00 8.6 3 Oeste 14 Oeste 0 983.8 0.4 91
2019-11-10 00:00:00 9 7 Noroeste 18 Noroeste 0 983.7 0.6 91
2019-11-09 23:00:00 9.2 7 Noroeste 14 Norte 0 983.6 0.1 97
2019-11-09 22:00:00 9.6 3 Oeste 8 Noroeste 0 983.4 0.3 96
2019-11-09 21:00:00 9.9 3 Norte 6 Oeste 0.2 983.1 0.2 95
2019-11-09 20:00:00 11 3 Sudoeste 8 Noroeste 0 983.5 0.5 95
2019-11-09 19:00:00 11.2 2 Norte 8 Oeste 0 983.1 -0.5 96
2019-11-09 18:00:00 11.1 6 Noroeste 13 Noroeste 1.6 982.9 -1 96
2019-11-09 17:00:00 11.5 3 Oeste 12 Oeste 0.8 983 -1.7 94
2019-11-09 16:00:00 11.2 5 Noroeste 18 Noroeste 0.2 983.6 -2 89
2019-11-09 15:00:00 12.6 5 Noroeste 24 Sudoeste 0 983.9 -2.7 68
2019-11-09 14:00:00 12.5 -- -- -- -- 0 984.7 -2.3 65
2019-11-09 13:00:00 13.9 10 Sudoeste 18 Sudoeste 0 985.6 -1.2 55
2019-11-09 12:00:00 12 5 Sudoeste 11 Oeste 0 986.6 -0.1 64
2019-11-09 11:00:00 10 6 Oeste 13 Oeste 0 987 0.7 70
2019-11-09 10:00:00 7.9 5 Oeste 10 Oeste 0 986.8 0.3 75
2019-11-09 09:00:00 6.4 5 Oeste 9 Noroeste 0 986.7 0.2 76
2019-11-09 08:00:00 4.7 0 Calma 6 Sudoeste 0 986.3 0 82
2019-11-09 07:00:00 5 5 Oeste 16 Oeste 0 986.5 0.6 79
2019-11-09 06:00:00 6 5 Norte 13 Norte 0 986.5 0.3 76
2019-11-09 05:00:00 5.9 4 Oeste 10 Oeste 0 986.3 -0.6 76
2019-11-09 04:00:00 6.6 7 Noroeste 9 Noroeste 0 985.9 -1.3 72
2019-11-09 03:00:00 6.2 3 Noroeste 15 Noroeste 0 986.2 -0.5 75
2019-11-09 02:00:00 7.8 5 Norte 17 Norte 0 986.9 0.4 69
2019-11-09 01:00:00 7 3 Norte 11 Sudoeste 0 987.2 0.8 73
2019-11-09 00:00:00 7.2 3 Sudoeste 16 Noroeste 0 986.7 0.8 71
2019-11-08 23:00:00 9 10 Norte 24 Norte 0 986.5 0.8 62
2019-11-08 22:00:00 8 6 Oeste 17 Norte 0 986.4 1.3 65
2019-11-08 21:00:00 9.4 9 Noroeste 19 Noroeste 0 985.9 1.8 59
2019-11-08 20:00:00 10.2 12 Noroeste 26 Noroeste 0 985.7 2.2 55
2019-11-08 19:00:00 10.9 10 Noroeste 20 Noroeste 0 985.1 2.1 55
2019-11-08 18:00:00 13.1 10 Noroeste 30 Noroeste 0 984.1 1.2 49
2019-11-08 17:00:00 14.9 15 Noroeste 34 Noroeste 0 983.5 0.7 41
2019-11-08 16:00:00 14.3 17 Noroeste -- -- 0 983 -0.2 42
2019-11-08 15:00:00 14.8 -- -- -- -- 0 982.9 -0.8 41
2019-11-08 14:00:00 14.5 -- -- -- -- 0 982.8 -0.5 42
2019-11-08 13:00:00 13.5 -- -- -- -- 0 983.2 0.4 46
2019-11-08 12:00:00 12.1 12 Noroeste 27 Noroeste 0 983.7 1.7 50
2019-11-08 11:00:00 10.7 10 Oeste 35 Noroeste 0 983.3 2.3 54
2019-11-08 10:00:00 9.4 20 Noroeste 36 Noroeste 0 982.8 2.2 56
2019-11-08 09:00:00 7.5 9 Noroeste 24 Oeste 0 982 2 65
2019-11-08 08:00:00 6 8 Noroeste 17 Noroeste 0 981 1.3 71
2019-11-08 07:00:00 5.8 9 Noroeste 29 Oeste 0 980.6 1.4 75
2019-11-08 06:00:00 5.6 9 Oeste 20 Oeste 0 980 1.1 78
2019-11-08 05:00:00 6.2 2 Noroeste 27 Oeste 0 979.7 0.9 74
2019-11-08 04:00:00 7.2 18 Oeste 30 Oeste 0 979.2 0.1 72
2019-11-08 03:00:00 7.1 9 Oeste 31 Oeste 0 978.9 -0.6 74
2019-11-08 02:00:00 8.3 14 Oeste 27 Oeste 0 978.8 -0.7 69
2019-11-08 01:00:00 8.6 8 Oeste 26 Noroeste 0 979.1 -0.2 68
2019-11-08 00:00:00 7.5 5 Oeste 20 Oeste 0 979.5 0.5 77
2019-11-07 23:00:00 7.1 10 Oeste 15 Oeste 0 979.5 0.7 82
2019-11-07 22:00:00 7.6 4 Oeste 15 Noroeste 0 979.3 0.9 77
2019-11-07 21:00:00 8 4 Noroeste 26 Oeste 0 979 1 76
2019-11-07 20:00:00 9.8 15 Oeste 34 Oeste 0 978.8 1.2 70
2019-11-07 19:00:00 10 9 Oeste 34 Oeste 0 978.4 1.4 67
2019-11-07 18:00:00 11.9 13 Oeste 49 Oeste 0 978 0.5 59
2019-11-07 17:00:00 14.5 18 Noroeste 45 Oeste 0 977.6 -0.6 48
2019-11-07 16:00:00 14.7 13 Oeste 32 Oeste 0 977 -2 49
2019-11-07 15:00:00 15.2 14 Sudoeste 40 Oeste 0 977.5 -2.2 48
2019-11-07 14:00:00 14.7 20 Noroeste 43 Noroeste 0 978.2 -1.2 46
2019-11-07 13:00:00 14.5 12 Noroeste 30 Oeste 0 979 0.1 51
2019-11-07 12:00:00 13.3 21 Noroeste 41 Noroeste 0 979.7 1.7 54
2019-11-07 11:00:00 12.2 19 Noroeste 38 Noroeste 0 979.4 2.5 60
2019-11-07 10:00:00 11.8 15 Noroeste 31 Norte 0 978.9 2.3 63
2019-11-07 09:00:00 10.3 11 Noroeste 27 Noroeste 0 978 1.7 69
2019-11-07 08:00:00 9.7 13 Noroeste 27 Noroeste 0 976.9 0.9 72
2019-11-07 07:00:00 11.2 15 Noroeste 26 Noroeste 0 976.6 0.5 77
2019-11-07 06:00:00 12.6 5 Noroeste 11 Oeste 0 976.3 -0.1 97
2019-11-07 05:00:00 12.7 4 Oeste 13 Noroeste 0 976 -1 98
2019-11-07 04:00:00 13.1 5 Noroeste 14 Noroeste 0.2 976.1 -1.4 98
2019-11-07 03:00:00 13.3 7 Oeste 11 Oeste 0.4 976.4 -1.6 98
2019-11-07 02:00:00 13.1 6 Sudoeste 9 Sudoeste 0.6 977 -1.7 97
2019-11-07 01:00:00 13 4 Sudoeste 11 Oeste 0.4 977.5 -1.4 96
2019-11-07 00:00:00 12.9 6 Sudoeste 10 Sudoeste 0 978 -0.9 95
2019-11-06 23:00:00 12.9 6 Oeste 20 Sudoeste 0 978.7 -0.4 94
2019-11-06 22:00:00 13.6 14 Oeste 27 Sudoeste 0 978.9 -0.2 82
2019-11-06 21:00:00 14.1 14 Sudoeste 24 Oeste 0 978.9 -0.3 76
2019-11-06 20:00:00 14.2 6 Oeste 15 Oeste 0 979.1 -0.3 71
2019-11-06 19:00:00 14.6 11 Oeste 19 Sudoeste 0 979.1 -0.5 67
2019-11-06 18:00:00 15.4 14 Oeste 26 Oeste 0 979.2 -0.9 62
2019-11-06 17:00:00 16 18 Oeste 27 Oeste 0 979.4 -1.4 56
2019-11-06 16:00:00 17.6 12 Oeste 26 Oeste 0 979.6 -2 50
2019-11-06 15:00:00 16.3 8 Oeste 18 Oeste 0 980.1 -2 54
2019-11-06 14:00:00 15.4 6 Oeste 15 Oeste 0 980.8 -1.6 54
2019-11-06 13:00:00 14.7 9 Oeste 19 Oeste 0 981.6 -0.6 57
2019-11-06 12:00:00 14 6 Noroeste 27 Noroeste 0 982.1 0 62
2019-11-06 11:00:00 12.2 6 Oeste 17 Oeste 0 982.4 0.8 70
2019-11-06 10:00:00 11.8 9 Noroeste 18 Noroeste 0 982.2 0.5 68
2019-11-06 09:00:00 9.7 7 Noroeste 14 Noroeste 0 982.1 0.8 75
2019-11-06 08:00:00 9.4 5 Norte 15 Noroeste 0 981.6 0.2 75
2019-11-06 07:00:00 9.6 5 Norte 21 Noroeste 0 981.7 -0.1 73
2019-11-06 06:00:00 9.1 11 Noroeste 19 Noroeste 0 981.3 -0.3 76
2019-11-06 05:00:00 9.3 6 Norte 29 Noroeste 0 981.4 -0.1 75
2019-11-06 04:00:00 8.8 2 Este 14 Sudeste 0 981.8 0 79
2019-11-06 03:00:00 9.5 4 Noroeste 30 Oeste 0 981.6 -0.1 77
2019-11-06 02:00:00 10.6 14 Noroeste 26 Noroeste 0 981.5 0.1 73
2019-11-06 01:00:00 10 9 Noroeste 17 Noroeste 0 981.8 0.9 77
2019-11-06 00:00:00 10 5 Oeste 14 Noroeste 0 981.7 1.1 77
2019-11-05 23:00:00 11.5 10 Noroeste 23 Oeste 0 981.4 1.2 70
2019-11-05 22:00:00 11.2 8 Oeste 20 Noroeste 0 980.9 1.4 71
2019-11-05 21:00:00 10.9 10 Oeste 18 Oeste 0 980.6 2 73
2019-11-05 20:00:00 12.1 10 Oeste 20 Oeste 0 980.2 1.8 69
2019-11-05 19:00:00 14.1 10 Noroeste 25 Noroeste 0 979.5 1.4 60
2019-11-05 18:00:00 16.1 12 Noroeste 34 Noroeste 0 978.6 0.7 51
2019-11-05 17:00:00 17.3 16 Noroeste 49 Oeste 0 978.4 0.6 46
2019-11-05 16:00:00 17.5 17 Oeste 46 Noroeste 0 978.1 0.1 49
2019-11-05 15:00:00 16.5 22 Noroeste 48 Noroeste 0 977.9 -0.6 51
2019-11-05 14:00:00 17.6 14 Oeste 45 Oeste 0 977.8 -0.6 47
2019-11-05 13:00:00 16.5 15 Oeste 35 Oeste 0 978 0 55
2019-11-05 12:00:00 14.2 21 Oeste 37 Oeste 0 978.5 0.9 70
2019-11-05 11:00:00 13 18 Oeste 29 Oeste 0 978.4 1.6 77
2019-11-05 10:00:00 11.1 17 Oeste 24 Oeste 0 978 1.5 88
2019-11-05 09:00:00 8.6 8 Oeste 17 Oeste 0 977.6 1.5 94
2019-11-05 08:00:00 8 7 Oeste 18 Sudoeste 0 976.8 1.4 94
2019-11-05 07:00:00 7.8 10 Oeste 14 Oeste 0 976.5 1 91
2019-11-05 06:00:00 8 9 Oeste 21 Oeste 0 976.1 0.7 90
2019-11-05 05:00:00 8.7 10 Oeste 16 Oeste 0 975.4 0.1 85
2019-11-05 04:00:00 9.5 3 Oeste 16 Sudoeste 0 975.5 0.3 82
2019-11-05 03:00:00 9.9 11 Oeste 24 Oeste 0 975.4 0.4 79
2019-11-05 02:00:00 10.5 11 Oeste 18 Oeste 0 975.3 0.5 82
2019-11-05 01:00:00 10.6 9 Oeste 19 Oeste 0 975.2 1.2 84
2019-11-05 00:00:00 11.8 13 Oeste 21 Oeste 0 975 1.4 79
2019-11-04 23:00:00 11.6 13 Oeste 36 Oeste 0 974.8 1.7 81
2019-11-04 22:00:00 12.2 25 Oeste 42 Oeste 0 974 1.1 69
2019-11-04 21:00:00 13.2 28 Oeste 47 Oeste 0 973.6 1.1 76
2019-11-04 20:00:00 13.7 27 Oeste 44 Oeste 0 973.1 0.1 83
2019-11-04 19:00:00 14.4 26 Oeste 42 Oeste 0 972.9 -0.2 89
2019-11-04 18:00:00 14.7 22 Oeste 37 Sudoeste 0 972.5 -0.8 88
2019-11-04 17:00:00 15 23 Oeste 40 Sudoeste 0.2 973 -0.3 91
2019-11-04 16:00:00 15.8 30 Sudoeste 54 Sudoeste 0 973.1 -1.4 89
2019-11-04 15:00:00 16.9 29 Sudoeste 60 Sudoeste 0 973.3 -2.1 78
2019-11-04 14:00:00 19.2 24 Sudoeste 53 Sudoeste 0 973.3 -2.8 66
2019-11-04 13:00:00 18.1 27 Sudoeste 53 Oeste 0 974.5 -2 72
2019-11-04 12:00:00 17.1 26 Sudoeste 51 Oeste 0 975.4 -1.3 74
2019-11-04 11:00:00 16.3 22 Sudoeste 38 Sudoeste 0 976.1 -0.1 76
2019-11-04 10:00:00 15.7 16 Sudoeste 32 Sudoeste 0 976.5 0 84
2019-11-04 09:00:00 14.8 13 Sudoeste 27 Sudoeste 0 976.7 0.1 90
2019-11-04 08:00:00 14.1 12 Oeste 21 Sudoeste 0 976.2 -0.5 92
2019-11-04 07:00:00 14.1 18 Sudoeste 33 Sudoeste 0 976.5 -0.5 93
2019-11-04 06:00:00 14.1 8 Sudoeste 32 Oeste 0 976.6 -0.9 93
2019-11-04 05:00:00 14.4 15 Sudoeste 31 Sudoeste 0 976.7 -1 87
2019-11-04 04:00:00 14.5 9 Oeste 23 Oeste 0 977 -1 90
2019-11-04 03:00:00 14.6 15 Sudoeste 34 Sudoeste 0 977.5 -0.8 93
2019-11-04 02:00:00 15.4 20 Sudoeste 32 Sudoeste 0 977.7 -0.7 84
2019-11-04 01:00:00 15.2 22 Oeste 44 Sudoeste 0 978 0 85
2019-11-04 00:00:00 15.2 19 Sudoeste 36 Oeste 0 978.3 0.2 82
2019-11-03 23:00:00 14.5 13 Oeste 35 Oeste 0 978.4 0.5 83
2019-11-03 22:00:00 15.2 24 Oeste 35 Oeste 0 978 0.9 79
2019-11-03 21:00:00 15.7 8 Oeste 27 Oeste 0 978.1 1.6 73
2019-11-03 20:00:00 15.9 18 Oeste 32 Oeste 0 977.9 1.8 70
2019-11-03 19:00:00 17 21 Oeste 40 Oeste 0 977.1 1 64
2019-11-03 18:00:00 17.9 24 Oeste 35 Oeste 0 976.5 0.6 59
2019-11-03 17:00:00 19.4 12 Oeste 24 Noroeste 0 976.1 0 53
2019-11-03 16:00:00 19.9 14 Noroeste 37 Noroeste 0 976.1 0.5 47
2019-11-03 15:00:00 19 19 Noroeste 48 Noroeste 0 975.9 0.6 48
2019-11-03 14:00:00 19.6 24 Noroeste 48 Noroeste 0 976.1 1.7 43
2019-11-03 13:00:00 19.1 20 Noroeste 58 Noroeste 0 975.6 2.1 47
2019-11-03 12:00:00 18.4 32 Noroeste 56 Noroeste 0 975.3 3.1 47
2019-11-03 11:00:00 17.6 22 Noroeste 42 Noroeste 0 974.4 3.7 49
2019-11-03 10:00:00 16.4 0 Calma 20 Sudoeste 0 973.5 3.3 80
2019-11-03 09:00:00 15.5 10 Sudoeste 25 Oeste 0 972.2 2.1 84
2019-11-03 08:00:00 15.3 17 Oeste 37 Oeste 0 970.7 0.6 83
2019-11-03 07:00:00 15.3 25 Oeste 39 Oeste 0 970.2 -0.3 85
2019-11-03 06:00:00 15.2 22 Oeste 33 Sudoeste 0 970.1 -0.9 84
2019-11-03 05:00:00 14.9 20 Oeste 34 Oeste 0 970.1 -1.4 83
2019-11-03 04:00:00 15.1 18 Oeste 44 Oeste 0 970.5 -1.6 80
2019-11-03 03:00:00 15 23 Sudoeste 39 Sudoeste 0 971 -1.6 79
2019-11-03 02:00:00 14.7 23 Oeste 40 Oeste 0 971.5 -1.1 85
2019-11-03 01:00:00 14.9 21 Sudoeste 41 Sudoeste 0 972.1 -0.6 81
2019-11-03 00:00:00 15.1 23 Sudoeste 39 Oeste 0 972.6 -0.5 81
2019-11-02 23:00:00 14.9 28 Oeste 48 Oeste 0 972.6 -0.5 80
2019-11-02 22:00:00 15.6 24 Oeste 39 Sudoeste 0 972.7 -0.6 75
2019-11-02 21:00:00 15.9 17 Oeste 29 Oeste 0 973.1 0 73
2019-11-02 20:00:00 16.6 17 Oeste 40 Oeste 0 973.1 0 70
2019-11-02 19:00:00 17 21 Oeste 39 Oeste 0 973.3 -0.2 66
2019-11-02 18:00:00 17.9 28 Oeste 47 Sudoeste 0 973.1 -0.6 63
2019-11-02 17:00:00 18.6 25 Oeste 43 Oeste 0 973.1 -1.2 63
2019-11-02 16:00:00 19.3 25 Oeste 48 Oeste 0 973.5 -1.7 67
2019-11-02 15:00:00 18.3 18 Oeste 41 Oeste 0 973.7 -2.3 81
2019-11-02 14:00:00 19.4 17 Sudoeste 36 Sudoeste 0 974.3 -2 72
2019-11-02 13:00:00 19.2 20 Oeste 29 Oeste 0 975.2 -1.4 73
2019-11-02 12:00:00 19 16 Sudoeste 35 Sudoeste 0 976 -0.4 78
2019-11-02 11:00:00 18.2 17 Sudoeste 35 Oeste 0 976.3 -0.1 86
2019-11-02 10:00:00 17.5 21 Sudoeste 35 Sudoeste 0 976.6 -0.4 87
2019-11-02 09:00:00 17.2 20 Sudoeste 33 Sudoeste 0 976.4 -1 87
2019-11-02 08:00:00 17.1 13 Sudoeste 28 Sudoeste 0 976.4 -1.4 87
2019-11-02 07:00:00 17.1 13 Sudoeste 29 Sudoeste 0 977 -1.3 88
2019-11-02 06:00:00 17.1 13 Sudoeste 30 Sudoeste 0 977.4 -1.2 90
2019-11-02 05:00:00 17 16 Sudoeste 26 Sudoeste 0 977.8 -1.6 91
2019-11-02 04:00:00 16.6 12 Sudoeste 28 Sudoeste 0 978.3 -2 92
2019-11-02 03:00:00 16.7 12 Sudoeste 33 Sudoeste 0 978.6 -2.3 92
2019-11-02 02:00:00 17.3 21 Oeste 38 Oeste 0 979.4 -1.8 90
2019-11-02 01:00:00 17.7 19 Oeste 37 Sudoeste 0 980.3 -1 89
2019-11-02 00:00:00 17.9 24 Oeste 37 Oeste 0 980.9 -0.6 87
2019-11-01 23:00:00 17.6 18 Sudoeste 32 Oeste 0 981.2 -0.6 88
2019-11-01 22:00:00 18.2 22 Oeste 41 Sudoeste 0 981.3 -0.5 85
2019-11-01 21:00:00 18.4 21 Oeste 42 Sudoeste 0 981.5 -0.6 84
2019-11-01 20:00:00 18.9 25 Oeste 43 Sudoeste 0 981.8 -0.8 80
2019-11-01 19:00:00 19.5 23 Oeste 47 Oeste 0 981.8 -1 78
2019-11-01 18:00:00 20.3 26 Oeste 52 Oeste 0 982.1 -1.1 74
2019-11-01 17:00:00 21.2 31 Oeste 50 Oeste 0 982.6 -1.7 70
2019-11-01 16:00:00 22.6 30 Sudoeste 47 Sudoeste 0 982.8 -2.5 67
2019-11-01 15:00:00 23 30 Oeste 48 Oeste 0 983.2 -2.7 66
2019-11-01 14:00:00 22.3 28 Sudoeste 45 Oeste 0 984.3 -2.2 73
2019-11-01 13:00:00 21.3 21 Sudoeste 39 Oeste 0 985.3 -1.3 80
2019-11-01 12:00:00 20 10 Sudoeste 21 Oeste 0 985.9 -0.7 88
2019-11-01 11:00:00 18.8 8 Oeste 18 Oeste 0 986.5 0 95
2019-11-01 10:00:00 18.1 3 Noroeste 9 Oeste 0 986.6 0.2 97
2019-11-01 09:00:00 17.6 8 Oeste 12 Oeste 0 986.6 -0.2 98
2019-11-01 08:00:00 17 7 Oeste 14 Oeste 0 986.5 -0.4 98
2019-11-01 07:00:00 16.8 8 Oeste 15 Oeste 0 986.4 -0.7 98
2019-11-01 06:00:00 16.5 9 Oeste 18 Oeste 0 986.8 -0.7 98
2019-11-01 05:00:00 16.1 8 Oeste 14 Oeste 0 986.9 -0.9 98
2019-11-01 04:00:00 16.2 4 Sudoeste 12 Oeste 0 987.1 -0.8 97
2019-11-01 03:00:00 16.5 5 Noroeste 13 Oeste 0 987.5 -0.7 97
2019-11-01 02:00:00 16.3 4 Oeste 10 Oeste 0 987.8 -0.1 95
2019-11-01 01:00:00 17.4 6 Oeste 19 Oeste 0 987.9 0.2 93
2019-11-01 00:00:00 17.7 6 Oeste 23 Sudoeste 0 988.2 0.5 93
2019-10-31 23:00:00 17.1 4 Sudoeste 12 Oeste 0 987.9 0.3 95
2019-10-31 22:00:00 17.7 3 Oeste 8 Sudoeste 0 987.7 0.4 94
2019-10-31 21:00:00 18.2 0 Calma 10 Oeste 0 987.7 0.6 92
2019-10-31 20:00:00 18.9 0 Calma 9 Oeste 0 987.6 0.6 90
2019-10-31 19:00:00 19.3 0 Calma 17 Oeste 0 987.3 0.4 86
2019-10-31 18:00:00 20.3 15 Oeste 26 Oeste 0 987.1 0.1 80
2019-10-31 17:00:00 21.2 13 Oeste 19 Oeste 0 987 -0.7 74
2019-10-31 16:00:00 21.7 11 Oeste 17 Sudoeste 0 986.9 -1.5 68
2019-10-31 15:00:00 21.1 8 Oeste 16 Sudoeste 0 987 -1.8 72
2019-10-31 14:00:00 20.5 9 Sudoeste 17 Sudoeste 0 987.7 -1.3 77
2019-10-31 13:00:00 19.7 6 Sudoeste -- -- 0 988.4 -0.2 82
2019-10-31 12:00:00 18 7 Oeste 21 Oeste 0 988.8 0.9 92
2019-10-31 11:00:00 17 5 Noroeste 13 Oeste 0 989 1.8 98
2019-10-31 10:00:00 16.3 5 Oeste 11 Oeste 0 988.6 1.4 99
2019-10-31 09:00:00 16.3 5 Oeste 12 Oeste 0 987.9 0.9 98
2019-10-31 08:00:00 16.2 3 Noroeste 12 Oeste 0 987.2 0.4 98
2019-10-31 07:00:00 16.3 6 Oeste 9 Oeste 0 987.2 0.4 98
2019-10-31 06:00:00 16.4 0 Calma 7 Noroeste 0 987 0 99
2019-10-31 05:00:00 16.2 0 Calma 7 Noroeste 0 986.8 -0.3 99
2019-10-31 04:00:00 16 0 Calma 13 Noroeste 0 986.8 -0.9 98
2019-10-31 03:00:00 16.2 5 Noroeste 9 Oeste 0 987 -0.4 98
2019-10-31 02:00:00 16.5 0 Calma 8 Sudoeste 0 987.1 -0.3 97
2019-10-31 01:00:00 17 4 Oeste 7 Norte 0 987.7 0.7 97
2019-10-31 00:00:00 17.1 3 Oeste 8 Este 0 987.4 0.6 97
2019-10-30 23:00:00 17.1 5 Nordeste 9 Este 0 987.4 0.9 97
2019-10-30 22:00:00 17 6 Este 10 Este 0 987 0.8 97
2019-10-30 21:00:00 17 5 Este 10 Este 0 986.8 1 97
2019-10-30 20:00:00 17 5 Este 9 Sudeste 0 986.5 1.1 95
2019-10-30 19:00:00 17.6 4 Este 7 Este 1.2 986.2 0.6 94
2019-10-30 18:00:00 18.1 4 Nordeste 13 Este 0.2 985.8 0 91
2019-10-30 17:00:00 18.6 7 Este 12 Este 0 985.4 -0.6 89
2019-10-30 16:00:00 19.1 4 Sudeste 9 Sur 0 985.6 -1 84
2019-10-30 15:00:00 19 6 Sur 15 Sudeste 0.2 985.8 -1.2 80
2019-10-30 14:00:00 18.8 4 Sudeste 9 Sudeste 0 986 -1 83
2019-10-30 13:00:00 18.5 3 Sudeste 8 Este 0 986.6 0.1 87
2019-10-30 12:00:00 18.1 4 Sudoeste 8 Oeste 0 987 1.1 87
2019-10-30 11:00:00 17.1 2 Sur 6 Sur 0 987 1.6 90
2019-10-30 10:00:00 16.1 4 Sudeste 9 Sudeste 0 986.5 1.5 92
2019-10-30 09:00:00 15 4 Este 9 Nordeste 0 985.9 1.1 95
2019-10-30 08:00:00 14.5 3 Sudoeste 8 Noroeste 0 985.4 0.7 95
2019-10-30 07:00:00 14.5 2 Este 6 Nordeste 0 985 0.2 94
2019-10-30 06:00:00 14.6 4 Nordeste 5 Nordeste 0 984.8 -0.2 92
2019-10-30 05:00:00 15.2 3 Este 4 Norte 0 984.7 -0.1 91
2019-10-30 04:00:00 15.7 2 Noroeste 4 Este 0 984.8 0.4 89
2019-10-30 03:00:00 16.3 2 Oeste 6 Oeste 0 985 0.5 85
2019-10-30 02:00:00 16.4 4 Noroeste 7 Noroeste 0 984.8 -0.1 84
2019-10-30 01:00:00 16.4 0 Calma 4 Noroeste 0 984.4 0.1 82
2019-10-30 00:00:00 16.5 0 Calma 6 Norte 0 984.5 0.6 82
2019-10-29 23:00:00 16.8 5 Noroeste 13 Noroeste 0 984.9 1.5 79
2019-10-29 22:00:00 17.2 0 Calma 5 Este 0 984.3 1.4 77
2019-10-29 21:00:00 17.7 4 Sudeste 11 Norte 0 983.9 1.1 74
2019-10-29 20:00:00 18.3 7 Norte 12 Noroeste 0 983.4 0.9 71
2019-10-29 19:00:00 19.3 8 Noroeste 15 Noroeste 0 982.9 0.3 67
2019-10-29 18:00:00 20.1 8 Noroeste 14 Oeste 0 982.8 0.5 62
2019-10-29 17:00:00 20.8 11 Oeste 24 Noroeste 0 982.5 0.1 60
2019-10-29 16:00:00 20.9 13 Oeste 26 Noroeste 0 982.6 -0.4 63
2019-10-29 15:00:00 21.9 11 Oeste 22 Oeste 0 982.3 -1 58
2019-10-29 14:00:00 20.7 6 Oeste 21 Sudoeste 0 982.4 -0.9 63
2019-10-29 13:00:00 19.6 5 Oeste 19 Oeste 0 983 0 68
2019-10-29 12:00:00 19.2 9 Oeste 18 Oeste 0 983.3 0.9 72
2019-10-29 11:00:00 18 4 Sur 8 Sur 0 983.3 1.7 86
2019-10-29 10:00:00 15.3 4 Sur 8 Sur 0 983 1.7 95
2019-10-29 09:00:00 14.8 0 Calma 8 Este 0 982.4 1.4 96
2019-10-29 08:00:00 14.5 2 Noroeste 6 Nordeste 0 981.6 0.8 96
2019-10-29 07:00:00 14.5 4 Nordeste 9 Norte 0 981.3 0.5 97
2019-10-29 06:00:00 14.5 0 Calma 8 Nordeste 0 981 -0.1 97
2019-10-29 05:00:00 14.6 2 Nordeste 6 Este 0 980.8 -0.5 96
2019-10-29 04:00:00 14.7 5 Este 9 Este 0 980.8 -0.7 95
2019-10-29 03:00:00 15.7 0 Calma 5 Noroeste 0 981.1 -0.5 93
2019-10-29 02:00:00 15.7 0 Calma 3 Nordeste 0 981.3 -0.1 92
2019-10-29 01:00:00 15.6 0 Calma 4 Oeste 0.2 981.5 0.1 91
2019-10-29 00:00:00 15.9 5 Oeste 8 Sudoeste 0 981.6 0.6 83
2019-10-28 23:00:00 15.7 2 Norte 7 Nordeste 0 981.4 0.2 79
2019-10-28 22:00:00 16.5 5 Nordeste 8 Nordeste 0 981.4 0.4 75
2019-10-28 21:00:00 17.2 4 Nordeste 8 Nordeste 0 981 -0.2 74
2019-10-28 20:00:00 17.6 4 Este 9 Norte 0 981.2 0.1 74
2019-10-28 19:00:00 18.2 4 Norte 10 Norte 0 981 -0.4 70
2019-10-28 18:00:00 18.9 3 Noroeste -- -- 0 981.2 -0.4 68
2019-10-28 17:00:00 19.6 4 Sur 8 Sudeste 0 981.1 -1.1 65
2019-10-28 16:00:00 19.9 4 Sur 14 Este 0 981.4 -1.4 62
2019-10-28 15:00:00 18.5 3 Norte 13 Oeste 0 981.6 -1.7 68
2019-10-28 14:00:00 18.6 4 Oeste 12 Noroeste 0 982.2 -0.8 72
2019-10-28 13:00:00 17.2 3 Oeste 12 Noroeste 0 982.8 -0.2 82
2019-10-28 12:00:00 15.6 6 Noroeste 13 Oeste 0 983.3 0.8 90
2019-10-28 11:00:00 14.6 4 Norte 7 Norte 0 983 1.1 94
2019-10-28 10:00:00 13.9 3 Oeste 8 Oeste 0 983 1.6 92
2019-10-28 09:00:00 13.8 3 Noroeste 6 Noroeste 0 982.5 1.2 93
2019-10-28 08:00:00 12.5 5 Oeste 8 Oeste 0 981.9 0.7 93
2019-10-28 07:00:00 13.1 0 Calma 5 Este 0 981.4 0 91
2019-10-28 06:00:00 13.4 0 Calma 3 Oeste 0 981.3 -0.2 89
2019-10-28 05:00:00 14.1 3 Sudoeste 8 Sudoeste 0 981.2 0 84
2019-10-28 04:00:00 14.4 2 Oeste 11 Noroeste 0 981.4 -0.4 79
2019-10-28 03:00:00 15.4 3 Sudoeste 6 Sudoeste 0 981.5 -0.4 77
2019-10-28 02:00:00 16.2 3 Sudeste 6 Noroeste 0 981.2 -1 70
2019-10-28 01:00:00 16.3 0 Calma 10 Este 0 981.8 -0.5 73
2019-10-28 00:00:00 17.1 5 Este 9 Este 0 981.9 0 69
2019-10-27 23:00:00 17.7 5 Este 7 Este 0 982.2 0.7 63
2019-10-27 22:00:00 17.9 5 Noroeste 7 Noroeste 0 982.3 1.2 62
2019-10-27 21:00:00 19.5 5 Sudoeste 13 Este 0 981.9 1 57
2019-10-27 20:00:00 20.4 9 Este 12 Nordeste 0 981.5 0.3 52
2019-10-27 19:00:00 20.8 7 Nordeste 13 Este 0 981.1 -0.4 51
2019-10-27 18:00:00 21.5 6 Este 15 Nordeste 0 980.9 -0.6 50
2019-10-27 17:00:00 22.9 5 Este 12 Este 0 981.2 -0.9 48
2019-10-27 16:00:00 23.8 4 Este 21 Este 0 981.5 -1.4 39
2019-10-27 15:00:00 24.2 9 Este 20 Este 0 981.5 -2 37
2019-10-27 14:00:00 24.1 9 Este 23 Este 0 982.1 -1.7 40
2019-10-27 13:00:00 23.1 13 Este 30 Sudeste 0 982.9 -1 45
2019-10-27 12:00:00 20.6 18 Este 40 Este 0 983.5 0 53
2019-10-27 11:00:00 18.1 19 Este 31 Este 0 983.8 1.1 60
2019-10-27 10:00:00 15.1 13 Este 22 Este 0 983.9 1.1 67
2019-10-27 09:00:00 14 2 Sudeste 17 Este 0 983.5 1.1 76
2019-10-27 08:00:00 12.7 10 Este 19 Este 0 982.7 0.5 76
2019-10-27 07:00:00 11.6 3 Noroeste 10 Noroeste 0 982.8 0.4 81
2019-10-27 06:00:00 11.1 4 Noroeste 7 Noroeste 0 982.4 -0.5 85
2019-10-27 05:00:00 12.2 4 Este 8 Este 0 982.2 -1.1 81
2019-10-27 04:00:00 12.2 7 Este 10 Este 0 982.4 -0.9 82
2019-10-27 03:00:00 13.3 5 Este 8 Este 0 982.9 -0.4 77
2019-10-27 02:00:00 13.1 0 Calma 5 Nordeste 0 983.3 0 78
2019-10-27 01:00:00 14.7 2 Sur 6 Oeste 0 983.3 0.4 71
2019-10-27 00:00:00 16 4 Noroeste 16 Nordeste 0 983.3 0.9 67
2019-10-26 23:00:00 18.4 11 Este 15 Nordeste 0 982.9 0.8 58
2019-10-26 22:00:00 19.4 8 Este 15 Este 0 982.9 1.1 54
2019-10-26 21:00:00 20.2 10 Este 14 Este 0 982.4 0.7 52
2019-10-26 20:00:00 21.2 10 Este 14 Este 0 982.1 0.2 50
2019-10-26 19:00:00 24 7 Este 15 Sudeste 0 981.8 -0.2 41
2019-10-26 18:00:00 25.3 13 Sudeste 19 Sudeste 0 981.7 -0.9 35
2019-10-26 17:00:00 25.8 9 Sudeste 21 Sudeste 0 981.9 -1.4 33
2019-10-26 16:00:00 24.8 10 Este 27 Este 0 982 -2 38
2019-10-26 15:00:00 24.1 11 Este 26 Este 0 982.6 -1.5 39
2019-10-26 14:00:00 22.3 15 Este 29 Este 0 983.3 -0.6 49
2019-10-26 13:00:00 20.8 18 Este 33 Este 0 984 0.2 52
2019-10-26 12:00:00 18.8 19 Este 33 Este 0 984.1 0.7 59
2019-10-26 11:00:00 16.2 18 Este 31 Este 0 983.9 0.8 68
2019-10-26 10:00:00 14.2 17 Este 26 Este 0 983.8 0.9 73
2019-10-26 09:00:00 12.8 14 Este 23 Este 0 983.4 0.8 78
2019-10-26 08:00:00 12.7 12 Este 23 Este 0 983.1 0.4 77
2019-10-26 07:00:00 13.5 14 Este 23 Este 0 982.9 -0.2 72
2019-10-26 06:00:00 13.1 6 Este 20 Este 0 982.6 -0.7 73
2019-10-26 05:00:00 14.5 12 Este 24 Este 0 982.7 -1 68
2019-10-26 04:00:00 15.2 15 Este 27 Este 0 983.1 -0.9 65
2019-10-26 03:00:00 15.7 15 Este 29 Este 0 983.3 -0.8 63
2019-10-26 02:00:00 16.2 15 Este 25 Este 0 983.7 -0.3 62
2019-10-26 01:00:00 15.7 8 Este 15 Este 0 984 0.1 63
2019-10-26 00:00:00 16.7 9 Este 15 Este 0 984.1 0.5 59
2019-10-25 23:00:00 17.3 11 Este 19 Este 0 984 0.5 57
2019-10-25 22:00:00 18.1 10 Este 19 Nordeste 0 983.9 0.8 54
2019-10-25 21:00:00 18.7 10 Este 18 Nordeste 0 983.6 0.2 51
2019-10-25 20:00:00 19.5 8 Nordeste 15 Este 0 983.5 -0.3 53
2019-10-25 19:00:00 21.7 9 Este 18 Este 0 983.1 -1.3 47
2019-10-25 18:00:00 23.2 12 Este 21 Este 0 983.4 -1.7 44
2019-10-25 17:00:00 23.4 8 Este 21 Sudeste 0 983.8 -2.2 42
2019-10-25 16:00:00 22.7 13 Este 23 Este 0 984.4 -2.6 43
2019-10-25 15:00:00 21.8 12 Este 28 Este 0 985.1 -2.3 49
2019-10-25 14:00:00 20 13 Este 23 Este 0 986 -1.4 58
2019-10-25 13:00:00 17.5 11 Este 22 Este 0 987 -0.1 64
2019-10-25 12:00:00 15.7 13 Este 22 Este 0 987.4 0.7 69
2019-10-25 11:00:00 13.5 4 Sudeste 10 Este 0 987.4 0.9 83
2019-10-25 10:00:00 11.5 5 Este 12 Este 0 987.1 0.9 92
2019-10-25 09:00:00 8.7 0 Calma 10 Este 0 986.7 0.4 93
2019-10-25 08:00:00 8.8 2 Noroeste 18 Este 0 986.5 0.2 90
2019-10-25 07:00:00 10.2 12 Este 18 Este 0 986.2 -0.4 94
2019-10-25 06:00:00 9.3 6 Este 8 Este 0 986.3 -0.3 94
2019-10-25 05:00:00 9.5 0 Calma 4 Norte 0 986.3 -0.5 91
2019-10-25 04:00:00 10.1 0 Calma 8 Este 0 986.6 -0.4 90
2019-10-25 03:00:00 10.5 4 Este 7 Este 0 986.6 0.3 88
2019-10-25 02:00:00 11 2 Sur 8 Noroeste 0 986.8 0.8 84
2019-10-25 01:00:00 11.4 5 Noroeste 14 Este 0 987 1.5 80
2019-10-25 00:00:00 13.5 8 Este 11 Este 0 986.3 0.9 72
2019-10-24 23:00:00 13.6 3 Norte 7 Noroeste 0 986 1.1 71
2019-10-24 22:00:00 14.2 2 Noroeste 4 Noroeste 0 985.5 1.2 67
2019-10-24 21:00:00 15 3 Oeste 8 Noroeste 0 985.4 1.4 65
2019-10-24 20:00:00 16.6 3 Oeste 10 Sudoeste 0 984.9 1.2 62
2019-10-24 19:00:00 18.6 6 Sur 18 Sudoeste 0 984.3 0.5 56
2019-10-24 18:00:00 20.1 9 Sudoeste 19 Sudoeste 0 984 0 50
2019-10-24 17:00:00 20.2 7 Sudoeste 16 Oeste 0 983.7 -0.6 52
2019-10-24 16:00:00 19.4 6 Sudoeste 20 Oeste 0 983.8 -0.6 53
2019-10-24 15:00:00 18.1 9 Oeste 17 Sudoeste 0 984 -0.2 54
2019-10-24 14:00:00 17.5 6 Sudoeste 18 Oeste 0 984.3 0.8 56
2019-10-24 13:00:00 15.4 6 Oeste 17 Oeste 0 984.4 1.5 60
2019-10-24 12:00:00 13.5 5 Oeste 10 Oeste 0 984.2 2.3 72
2019-10-24 11:00:00 11.2 5 Oeste 12 Noroeste 0 983.5 2.1 85
2019-10-24 10:00:00 9.3 9 Noroeste 15 Oeste 0 982.9 1.9 90
2019-10-24 09:00:00 8.3 5 Noroeste 9 Oeste 0 981.9 1.6 94
2019-10-24 08:00:00 8.4 5 Oeste 11 Noroeste 0 981.4 1.7 92
2019-10-24 07:00:00 8.1 6 Oeste 9 Oeste 0 981 2 93
2019-10-24 06:00:00 8.7 3 Oeste 9 Oeste 0 980.3 1.4 91
2019-10-24 05:00:00 9.4 4 Noroeste 18 Norte 0 979.7 1.1 89
2019-10-24 04:00:00 10.3 9 Norte 20 Noroeste 0 979 1 86
2019-10-24 03:00:00 10.3 7 Noroeste 17 Noroeste 0 978.9 1.3 88
2019-10-24 02:00:00 10.8 7 Noroeste 17 Noroeste 0 978.6 1.7 88
2019-10-24 01:00:00 11.3 10 Noroeste 17 Noroeste 0 978 1.6 89
2019-10-24 00:00:00 11 3 Oeste 13 Noroeste 0 977.6 1.7 89
2019-10-23 23:00:00 11.1 5 Oeste 17 Noroeste 0 976.9 1.8 88
2019-10-23 22:00:00 10.9 9 Noroeste 24 Noroeste 0 976.4 1.6 88
2019-10-23 21:00:00 11.2 15 Noroeste 28 Noroeste 0.2 975.9 1.6 88
2019-10-23 20:00:00 11.3 12 Oeste 21 Oeste 0.8 975.1 1.3 95
2019-10-23 19:00:00 11.6 8 Oeste 23 Oeste 0.8 974.8 1.6 94
2019-10-23 18:00:00 12.1 8 Oeste 23 Oeste 0.4 974.3 1.7 93
2019-10-23 17:00:00 12 10 Oeste 25 Oeste 0.8 973.8 1.2 93
2019-10-23 16:00:00 12.3 17 Oeste 40 Oeste 0 973.2 0.5 87
2019-10-23 15:00:00 12.3 21 Oeste 42 Oeste 0 972.6 -0.2 88
2019-10-23 14:00:00 11.9 22 Oeste 35 Oeste 0 972.6 0 89
2019-10-23 13:00:00 11.1 18 Oeste 26 Oeste 0 972.7 0.5 92
2019-10-23 12:00:00 10.5 12 Oeste 22 Oeste 0.4 972.8 1 95
2019-10-23 11:00:00 10.2 12 Oeste 23 Oeste 0.6 972.6 -- 93
2019-10-23 10:00:00 10.4 6 Noroeste 15 Oeste 0 972.2 -- 91
2019-10-23 09:00:00 9.6 -- -- -- -- -- 971.8 -- 93
2019-10-23 08:00:00 -- -- -- -- -- -- -- -- --
2019-10-23 07:00:00 -- -- -- -- -- -- -- -- --
2019-10-23 06:00:00 -- -- -- -- -- -- -- -- --
2019-10-23 05:00:00 -- -- -- -- -- -- -- -- --
2019-10-23 04:00:00 -- -- -- -- -- -- -- -- --
2019-10-23 03:00:00 -- -- -- -- -- -- -- -- --
2019-10-23 02:00:00 -- -- -- -- -- -- -- -- --
2019-10-23 01:00:00 -- -- -- -- -- -- -- -- --
2019-10-23 00:00:00 -- -- -- -- -- -- -- -- --
2019-10-22 23:00:00 -- -- -- -- -- -- -- -- --
2019-10-22 22:00:00 -- -- -- -- -- -- -- -- --
2019-10-22 21:00:00 -- -- -- -- -- -- -- -- --
2019-10-22 20:00:00 -- -- -- -- -- -- -- -- --
2019-10-22 19:00:00 -- -- -- -- -- -- -- -- --
2019-10-22 18:00:00 -- -- -- -- -- -- -- -- --
2019-10-22 17:00:00 -- -- -- -- -- -- -- -- --
2019-10-22 16:00:00 -- -- -- -- -- -- -- -- --
2019-10-22 15:00:00 -- -- -- -- -- -- -- -- --
2019-10-22 14:00:00 -- -- -- -- -- -- -- -- --
2019-10-22 13:00:00 -- -- -- -- -- -- -- -- --
2019-10-22 12:00:00 -- -- -- -- -- -- -- -- --
2019-10-22 11:00:00 -- -- -- -- -- -- -- -- --
2019-10-22 10:00:00 -- -- -- -- -- -- -- -- --
2019-10-22 09:00:00 -- -- -- -- -- -- -- -- --
2019-10-22 08:00:00 -- -- -- -- -- -- -- -- --
2019-10-22 07:00:00 -- -- -- -- -- -- -- -- --
2019-10-22 06:00:00 -- -- -- -- -- -- -- -- --
2019-10-22 05:00:00 -- -- -- -- -- -- -- -- --
2019-10-22 04:00:00 -- -- -- -- -- -- -- -- --
2019-10-22 03:00:00 -- -- -- -- -- -- -- -- --
2019-10-22 02:00:00 -- -- -- -- -- -- -- -- --
2019-10-22 01:00:00 -- -- -- -- -- -- -- -- --
2019-10-22 00:00:00 -- -- -- -- -- -- -- -- --
2019-10-21 23:00:00 10.4 0 Calma 8 Oeste 0 980.3 0.7 74
2019-10-21 22:00:00 11.9 5 Este 19 Este 0 980.1 0.9 67
2019-10-21 21:00:00 12.9 10 Este 24 Nordeste 0 979.9 0.8 66
2019-10-21 20:00:00 13.8 14 Norte 28 Nordeste 0 979.6 0.3 58
2019-10-21 19:00:00 17.5 2 Nordeste 7 Sudeste 0 979.2 -0.4 44
2019-10-21 18:00:00 18.3 4 Sudeste 15 Este 0 979.1 -1.2 42
2019-10-21 17:00:00 18.1 8 Sur 17 Sudeste 0 979.3 -1.7 48
2019-10-21 16:00:00 18.2 9 Sudeste 17 Sudeste 0 979.6 -2 52
2019-10-21 15:00:00 17.3 11 Este 19 Este 0 980.3 -1.4 51
2019-10-21 14:00:00 16.4 5 Sudeste 21 Sudeste 0 981 -- 60
2019-10-21 13:00:00 14.9 8 Este 21 Este 0 981.6 -- 70
2019-10-21 12:00:00 12.4 6 Este -- -- -- 981.7 -- 79
2019-10-21 11:00:00 -- -- -- -- -- -- -- -- --
2019-10-21 10:00:00 -- -- -- -- -- -- -- -- --
2019-10-21 09:00:00 -- -- -- -- -- -- -- -- --
2019-10-21 08:00:00 -- -- -- -- -- -- -- -- --
2019-10-21 07:00:00 -- -- -- -- -- -- -- -- --
2019-10-21 06:00:00 -- -- -- -- -- -- -- -- --
2019-10-21 05:00:00 -- -- -- -- -- -- -- -- --
2019-10-21 04:00:00 -- -- -- -- -- -- -- -- --
2019-10-21 03:00:00 -- -- -- -- -- -- -- -- --
2019-10-21 02:00:00 -- -- -- -- -- -- -- -- --
2019-10-21 01:00:00 -- -- -- -- -- -- -- -- --
2019-10-21 00:00:00 -- -- -- -- -- -- -- -- --
2019-10-20 23:00:00 -- -- -- -- -- -- -- -- --
2019-10-20 22:00:00 -- -- -- -- -- -- -- -- --
2019-10-20 21:00:00 -- -- -- -- -- -- -- -- --
2019-10-20 20:00:00 -- -- -- -- -- -- -- -- --
2019-10-20 19:00:00 14.1 4 Este 27 Oeste 0.4 976.9 1.1 71
2019-10-20 18:00:00 16 10 Noroeste 23 Noroeste 0 976.5 0.8 55
2019-10-20 17:00:00 16.5 5 Oeste 25 Norte 0 976 0.4 51
2019-10-20 16:00:00 16.7 8 Norte 22 Norte 0 975.8 0.5 51
2019-10-20 15:00:00 16 5 Sudoeste 17 Norte 0 975.7 -- 53
2019-10-20 14:00:00 15.4 9 Nordeste 24 Noroeste 0 975.6 -- 57
2019-10-20 13:00:00 14.6 9 Nordeste -- -- -- 975.3 -- 57
2019-10-20 12:00:00 -- -- -- -- -- -- -- -- --
2019-10-20 11:00:00 -- -- -- -- -- -- -- -- --
2019-10-20 10:00:00 -- -- -- -- -- -- -- -- --
2019-10-20 09:00:00 -- -- -- -- -- -- -- -- --
2019-10-20 08:00:00 -- -- -- -- -- -- -- -- --
2019-10-20 07:00:00 -- -- -- -- -- -- -- -- --
2019-10-20 06:00:00 -- -- -- -- -- -- -- -- --
2019-10-20 05:00:00 -- -- -- -- -- -- -- -- --
2019-10-20 04:00:00 -- -- -- -- -- -- -- -- --
2019-10-20 03:00:00 -- -- -- -- -- -- -- -- --
2019-10-20 02:00:00 -- -- -- -- -- -- -- -- --
2019-10-20 01:00:00 -- -- -- -- -- -- -- -- --
2019-10-20 00:00:00 -- -- -- -- -- -- -- -- --
2019-10-19 23:00:00 -- -- -- -- -- -- -- -- --
2019-10-19 22:00:00 -- -- -- -- -- -- -- -- --
2019-10-19 21:00:00 -- -- -- -- -- -- -- -- --
2019-10-19 20:00:00 -- -- -- -- -- -- -- -- --
2019-10-19 19:00:00 -- -- -- -- -- -- -- -- --
2019-10-19 18:00:00 15.7 11 Sur -- -- -- 967.8 -2.8 96
2019-10-19 17:00:00 -- -- -- -- -- -- -- -- --
2019-10-19 16:00:00 -- -- -- -- -- -- -- -- --
2019-10-19 15:00:00 15.2 21 Sudeste 33 Sur 0.2 970.6 -3.5 89
2019-10-19 14:00:00 16.2 17 Sur 32 Sur 0 972.4 -- 72
2019-10-19 13:00:00 15.7 18 Sur 34 Sudeste 0 973.1 -- 74
2019-10-19 12:00:00 14.8 18 Sur -- -- -- 974.1 -- 79
2019-10-19 11:00:00 -- -- -- -- -- -- -- -- --
2019-10-19 10:00:00 -- -- -- -- -- -- -- -- --
2019-10-19 09:00:00 -- -- -- -- -- -- -- -- --
2019-10-19 08:00:00 13.6 4 Sur 19 Sudoeste 0 975 -1 84
2019-10-19 07:00:00 13.7 7 Sudoeste 16 Oeste 0 975.5 -1.7 82
2019-10-19 06:00:00 13.3 4 Oeste 13 Sudoeste 0 975.8 -1.5 83
2019-10-19 05:00:00 13.8 5 Sudoeste 18 Oeste 0 976 -1.4 80
2019-10-19 04:00:00 14.2 12 Oeste 18 Sudoeste 0 977.2 -0.7 80
2019-10-19 03:00:00 14.2 8 Oeste 12 Sudoeste 0 977.3 -0.8 84
2019-10-19 02:00:00 13.7 4 Oeste 12 Sudoeste 0 977.4 -0.9 81
2019-10-19 01:00:00 13.8 5 Sudoeste 16 Sudoeste 0 977.9 -0.6 79
2019-10-19 00:00:00 13.9 6 Sudoeste 11 Oeste 0 978.1 -0.6 78
2019-10-18 23:00:00 14.7 5 Sudoeste 14 Sudoeste 0 978.3 -0.1 74
2019-10-18 22:00:00 15.3 8 Sudoeste 20 Oeste 0 978.5 0.2 70
2019-10-18 21:00:00 16.2 11 Sudoeste 25 Oeste 0 978.7 0.3 66
2019-10-18 20:00:00 17.7 15 Sudoeste 30 Sudoeste 0 978.4 -0.3 61
2019-10-18 19:00:00 20.3 15 Sudoeste 26 Sudoeste 0 978.3 -0.7 53
2019-10-18 18:00:00 20.5 14 Oeste 27 Oeste 0 978.4 -1.2 56
2019-10-18 17:00:00 21.8 9 Sudoeste 23 Sudoeste 0 978.7 -1.7 53
2019-10-18 16:00:00 21.2 9 Sur 22 Sur 0 979 -1.9 52
2019-10-18 15:00:00 21 7 Sudoeste 21 Sudoeste 0 979.6 -1.4 55
2019-10-18 14:00:00 20.4 11 Sudoeste 26 Oeste 0 980.4 -0.5 60
2019-10-18 13:00:00 19.9 12 Sur 23 Sur 0 980.9 0.1 72
2019-10-18 12:00:00 18.5 10 Sudoeste 18 Sudoeste 0 981 0.8 82
2019-10-18 11:00:00 18.3 5 Sudoeste 16 Sudoeste 0 980.9 0.7 91
2019-10-18 10:00:00 17.6 6 Sudoeste 13 Sudoeste 0 980.8 0.5 96
2019-10-18 09:00:00 17.4 4 Sudoeste 8 Sudoeste 0 980.2 -0.2 96
2019-10-18 08:00:00 17.4 4 Sudeste 8 Sudoeste 0 980.2 -0.1 96
2019-10-18 07:00:00 17.3 4 Sudeste 10 Sur 0 980.3 0 96
2019-10-18 06:00:00 17.4 5 Sur 13 Sur 0 980.4 -0.1 96
2019-10-18 05:00:00 17.4 6 Sudoeste 20 Sudoeste 0.2 980.3 -0.7 97
2019-10-18 04:00:00 17.4 8 Sudoeste 19 Sudoeste 0 980.3 -0.9 96
2019-10-18 03:00:00 17.4 10 Sur 21 Sur 0.4 980.5 -1.1 96
2019-10-18 02:00:00 17.7 8 Sur 22 Sur 0.2 981 -0.3 95
2019-10-18 01:00:00 17.9 10 Sur 19 Sudoeste 0 981.2 -0.2 95
2019-10-18 00:00:00 17.9 9 Sudoeste 17 Sur 0 981.6 0.3 95
2019-10-17 23:00:00 17.7 6 Sur 14 Sur 0 981.3 0.3 96
2019-10-17 22:00:00 17.5 6 Sur 14 Sur 0.2 981.4 0.4 96
2019-10-17 21:00:00 17.4 9 Sur 17 Sur 0.8 981.3 0.3 96
2019-10-17 20:00:00 17.6 9 Sur 15 Sur 0 981 -0.4 96
2019-10-17 19:00:00 17.5 6 Sudeste 12 Sur 0.2 981 -0.6 97
2019-10-17 18:00:00 17.4 6 Sudeste 15 Sur 0.4 981 -1 97
2019-10-17 17:00:00 17.1 8 Sudeste 15 Sur 1 981.4 -1.2 98
2019-10-17 16:00:00 16.6 10 Este 15 Este 0.4 981.6 -1.1 97
2019-10-17 15:00:00 16.4 9 Este 14 Este 0.2 982 -0.9 97
2019-10-17 14:00:00 16 4 Este 12 Sudeste 0 982.6 0 97
2019-10-17 13:00:00 15.8 6 Sudeste 10 Sudeste 0.2 982.7 0.4 98
2019-10-17 12:00:00 14.9 6 Sudeste 13 Este 0 982.9 1.3 98
2019-10-17 11:00:00 14.3 7 Este 14 Este 0.2 982.6 1.3 98
2019-10-17 10:00:00 13.8 8 Este 13 Este 0.6 982.3 1.2 98
2019-10-17 09:00:00 13.5 8 Este 15 Este 2.4 981.6 0.5 97
2019-10-17 08:00:00 13.4 8 Este 17 Este 1 981.3 0.1 96
2019-10-17 07:00:00 13.7 9 Este 14 Este 2.2 981.1 -0.2 94
2019-10-17 06:00:00 14.7 6 Este 11 Este 0.8 981.1 -0.6 84
2019-10-17 05:00:00 15.3 3 Sudeste 7 Sudeste 0 981.2 -0.7 77
2019-10-17 04:00:00 15.1 3 Este 8 Sudoeste 0 981.3 -0.8 78
2019-10-17 03:00:00 14.8 4 Sudoeste 9 Sudoeste 0 981.7 -0.6 78
2019-10-17 02:00:00 14.9 3 Sudoeste 8 Sudeste 0 981.9 -0.2 73
2019-10-17 01:00:00 15.2 2 Sudeste 5 Sudeste 0 982.1 0 69
2019-10-17 00:00:00 15.5 3 Sudeste 6 Este 0 982.3 0.3 67
2019-10-16 23:00:00 15.7 0 Calma 5 Oeste 0 982.1 0.5 67
2019-10-16 22:00:00 15.8 2 Oeste 6 Oeste 0 982.1 0.5 65
2019-10-16 21:00:00 17.2 3 Oeste 10 Oeste 0 982 0.3 59
2019-10-16 20:00:00 18.2 5 Oeste 17 Sudoeste 0 981.6 -0.1 55
2019-10-16 19:00:00 19.8 4 Sudoeste 20 Sur 0 981.6 -0.5 47
2019-10-16 18:00:00 20.2 6 Sudoeste 23 Sudoeste 0 981.7 -1.4 46
2019-10-16 17:00:00 20.6 7 Sudoeste 24 Sudoeste 0 981.7 -2.7 44
2019-10-16 16:00:00 19.8 6 Noroeste 18 Noroeste 0 982.1 -2.6 48
2019-10-16 15:00:00 18.3 9 Sudoeste 18 Sur 0 983.1 -1.9 55
2019-10-16 14:00:00 17.8 9 Sudoeste 24 Oeste 0 984.4 -0.6 58
2019-10-16 13:00:00 17.2 6 Sudoeste 13 Sur 0 984.7 -0.1 63
2019-10-16 12:00:00 15.1 3 Sudoeste 11 Sudeste 0 985 0.5 71
2019-10-16 11:00:00 12.9 9 Este 14 Este 0 985 0.8 79
2019-10-16 10:00:00 10.7 8 Este 12 Este 0 984.8 0.8 91
2019-10-16 09:00:00 8.3 4 Sudeste 5 Sudeste 0 984.5 0.6 93
2019-10-16 08:00:00 8.8 0 Calma 3 Oeste 0 984.2 0.1 90
2019-10-16 07:00:00 9.5 0 Calma 4 Sudeste 0 984 -0.3 89
2019-10-16 06:00:00 9.8 3 Sudeste 6 Este 0 983.9 -0.7 85
2019-10-16 05:00:00 10.3 4 Este 6 Este 0 984.1 -0.7 83
2019-10-16 04:00:00 10.8 0 Calma 7 Nordeste 0 984.3 -0.5 80
2019-10-16 03:00:00 11.2 4 Este 6 Sur 0 984.6 -0.2 80
2019-10-16 02:00:00 11.8 3 Oeste 5 Oeste 0 984.8 0.2 75
2019-10-16 01:00:00 12.1 2 Este 5 Este 0 984.8 0.3 73
2019-10-16 00:00:00 12.8 2 Sur 7 Este 0 984.8 0.4 69
2019-10-15 23:00:00 13.8 5 Este 6 Este 0 984.6 0.4 66
2019-10-15 22:00:00 14.1 3 Sudeste 5 Sudeste 0 984.5 0.5 63
2019-10-15 21:00:00 14.6 2 Sudeste 5 Sudoeste 0 984.4 0.2 61
2019-10-15 20:00:00 16.1 2 Sudoeste 5 Sudoeste 0 984.2 0 58
2019-10-15 19:00:00 17.9 6 Sudoeste 18 Sudoeste 0 984 -0.8 50
2019-10-15 18:00:00 18.1 8 Oeste 18 Oeste 0 984.2 -0.9 49
2019-10-15 17:00:00 18.1 6 Oeste 20 Oeste 0 984.2 -1.5 48
2019-10-15 16:00:00 18.1 10 Oeste 24 Oeste 0 984.8 -1.2 47
2019-10-15 15:00:00 17.7 7 Oeste 22 Oeste 0 985.1 -1.2 51
2019-10-15 14:00:00 16.8 7 Sudoeste 14 Sudoeste 0 985.7 -0.5 52
2019-10-15 13:00:00 15.5 4 Oeste 12 Sudoeste 0 986 0.4 61
2019-10-15 12:00:00 13.6 3 Oeste 9 Oeste 0 986.3 1.2 73
2019-10-15 11:00:00 11.9 3 Sudeste 8 Sudeste 0 986.2 1.3 77
2019-10-15 10:00:00 8.4 3 Oeste 6 Oeste 0 985.6 1 89
2019-10-15 09:00:00 6.9 0 Calma 8 Noroeste 0 985.1 0.6 90
2019-10-15 08:00:00 7.2 4 Noroeste 9 Este 0 984.9 0.9 90
2019-10-15 07:00:00 7.6 3 Sudoeste 13 Noroeste 0 984.6 0.5 83
2019-10-15 06:00:00 7.8 5 Noroeste 8 Oeste 0 984.5 0.3 85
2019-10-15 05:00:00 8.4 3 Oeste 6 Norte 0 984 0.1 80
2019-10-15 04:00:00 8.5 2 Este 12 Noroeste 0 984.1 0.4 82
2019-10-15 03:00:00 9.7 6 Noroeste 14 Noroeste 0 984.2 1 75
2019-10-15 02:00:00 10 9 Noroeste 15 Noroeste 0 983.9 1.1 76
2019-10-15 01:00:00 10.2 6 Oeste 14 Noroeste 0 983.7 1.8 73
2019-10-15 00:00:00 11 7 Oeste 17 Noroeste 0 983.2 2.1 70
2019-10-14 23:00:00 11.6 6 Oeste 25 Noroeste 0 982.8 2.9 69
2019-10-14 22:00:00 12.6 12 Noroeste 22 Noroeste 0 981.9 2.8 67
2019-10-14 21:00:00 13.5 8 Noroeste 35 Oeste 0 981.1 2.8 64
2019-10-14 20:00:00 14.5 13 Oeste 44 Oeste 0 979.9 1.9 60
2019-10-14 19:00:00 15.9 13 Noroeste 46 Oeste 0 979.1 1.6 60
2019-10-14 18:00:00 16.5 16 Oeste 37 Oeste 0 978.3 1.1 59
2019-10-14 17:00:00 16.2 21 Oeste 31 Oeste 0 978 0.5 70
2019-10-14 16:00:00 14.4 18 Oeste 33 Oeste 0.4 977.5 0 87
2019-10-14 15:00:00 14.2 16 Oeste 30 Sudoeste 2.6 977.2 -0.8 93
2019-10-14 14:00:00 14.3 9 Sudoeste 30 Sudoeste 3 977.5 0.1 91
2019-10-14 13:00:00 15.6 12 Sur 28 Oeste 0 977.5 0.9 74
2019-10-14 12:00:00 15.3 15 Sudoeste 27 Sur 0 978 2.7 73
2019-10-14 11:00:00 15.6 13 Sudoeste 27 Sudoeste 0 977.4 2.8 75
2019-10-14 10:00:00 14.3 16 Sudoeste 30 Sudoeste 0 976.6 2.9 86
2019-10-14 09:00:00 13.5 8 Sudoeste 21 Sudoeste 0 975.3 2.5 91
2019-10-14 08:00:00 14.3 9 Sudoeste 41 Sudoeste 0.4 974.6 2 88
2019-10-14 07:00:00 15.5 22 Sur 44 Sur 2.4 973.7 0.2 92
2019-10-14 06:00:00 15.5 12 Este 18 Este 0 972.8 -0.8 78
2019-10-14 05:00:00 16 5 Oeste 13 Oeste 0 972.6 -1.3 76
2019-10-14 04:00:00 16 4 Oeste 9 Oeste 0 973.5 -1.2 72
2019-10-14 03:00:00 16.8 5 Oeste 12 Oeste 0 973.6 -1.1 68
2019-10-14 02:00:00 17.6 5 Oeste 15 Oeste 0 973.9 -1.1 64
2019-10-14 01:00:00 18.1 9 Oeste 27 Sudoeste 0 974.7 -0.7 58
2019-10-14 00:00:00 19.8 11 Este 19 Este 0 974.7 -0.9 51